Time;durP1;ratioP1;P1;durP2;ratioP2;P2;SDS_P1;SDS_P2;PMS_P1;PMS_P2;Temp;Humidity;BMP_temperature;BMP_pressure;BME280_temperature;BME280_humidity;BME280_pressure;Samples;Min_cycle;Max_cycle;Signal;HPM_P1;HPM_P2
2024/03/31 00:00:13;;;;;;;24.00;19.20;;;7.50;95.30;;;;;;5065520;28;20005;-82
2024/03/31 00:02:39;;;;;;;24.85;19.10;;;7.50;95.40;;;;;;5043114;28;20041;-83
2024/03/31 00:05:06;;;;;;;23.70;19.05;;;7.50;95.30;;;;;;5059751;28;20789;-82
2024/03/31 00:07:31;;;;;;;24.23;19.33;;;7.50;95.40;;;;;;5054587;28;20040;-83
2024/03/31 00:09:57;;;;;;;24.75;19.70;;;7.50;95.40;;;;;;5064274;28;20037;-80
2024/03/31 00:12:23;;;;;;;26.23;20.20;;;7.50;95.40;;;;;;5059174;28;20669;-83
2024/03/31 00:14:49;;;;;;;27.63;20.90;;;7.40;95.40;;;;;;5056443;28;20115;-82
2024/03/31 00:17:14;;;;;;;27.75;21.63;;;7.50;95.30;;;;;;5055881;28;20039;-81
2024/03/31 00:19:40;;;;;;;29.50;20.90;;;7.50;95.40;;;;;;5056718;28;20028;-82
2024/03/31 00:22:06;;;;;;;27.70;21.63;;;7.50;95.40;;;;;;5059618;28;20029;-82
2024/03/31 00:24:31;;;;;;;26.38;20.33;;;7.40;95.40;;;;;;5055137;28;20183;-80
2024/03/31 00:26:57;;;;;;;28.02;20.08;;;7.40;95.40;;;;;;5058286;28;20102;-81
2024/03/31 00:29:23;;;;;;;28.92;21.95;;;7.40;95.50;;;;;;5057902;28;20032;-82
2024/03/31 00:31:48;;;;;;;27.33;20.98;;;7.40;95.50;;;;;;5059054;28;20031;-83
2024/03/31 00:34:16;;;;;;;33.00;22.92;;;7.40;95.50;;;;;;5057135;28;20542;-82
2024/03/31 00:36:43;;;;;;;29.67;22.77;;;7.40;95.50;;;;;;5060232;28;20043;-79
2024/03/31 00:39:09;;;;;;;29.33;21.50;;;7.40;95.50;;;;;;5058898;28;20037;-78
2024/03/31 00:41:34;;;;;;;33.45;23.25;;;7.40;95.60;;;;;;5058889;28;20507;-81
2024/03/31 00:44:01;;;;;;;31.48;24.05;;;7.40;95.60;;;;;;5058893;28;20029;-80
2024/03/31 00:46:27;;;;;;;28.30;23.20;;;7.40;95.60;;;;;;5057789;28;20029;-83
2024/03/31 00:48:53;;;;;;;32.75;23.23;;;7.30;95.60;;;;;;5054711;28;20028;-81
2024/03/31 00:51:18;;;;;;;29.27;22.85;;;7.40;95.60;;;;;;5057965;28;20032;-82
2024/03/31 00:53:44;;;;;;;30.92;24.25;;;7.30;95.70;;;;;;5052987;28;20059;-83
2024/03/31 00:56:12;;;;;;;31.88;22.92;;;7.30;95.70;;;;;;5025317;28;20491;-81
2024/03/31 00:58:38;;;;;;;33.88;25.38;;;7.30;95.80;;;;;;5047031;28;20037;-82
2024/03/31 01:01:04;;;;;;;33.60;25.25;;;7.30;95.80;;;;;;5047537;28;20154;-83
2024/03/31 01:03:30;;;;;;;31.23;23.98;;;7.30;95.80;;;;;;5054623;28;20139;-80
2024/03/31 01:06:11;;;;;;;31.27;23.95;;;7.30;95.80;;;;;;5058071;28;20039;-82
2024/03/31 01:08:38;;;;;;;30.10;22.55;;;7.20;95.80;;;;;;5055371;28;20131;-79
2024/03/31 01:11:04;;;;;;;33.30;25.40;;;7.20;95.80;;;;;;5057330;28;20102;-81
2024/03/31 01:13:31;;;;;;;32.92;24.08;;;7.20;95.90;;;;;;5050971;28;20048;-79
2024/03/31 01:15:57;;;;;;;36.25;25.35;;;7.20;96.00;;;;;;5059048;28;20040;-82
2024/03/31 01:18:22;;;;;;;36.42;26.83;;;7.20;96.00;;;;;;5057595;28;20029;-83
2024/03/31 01:20:49;;;;;;;37.40;26.13;;;7.30;96.10;;;;;;5056551;28;20048;-83
2024/03/31 01:23:17;;;;;;;37.08;25.85;;;7.30;96.10;;;;;;5054467;28;20032;-80
2024/03/31 01:25:43;;;;;;;38.50;26.95;;;7.30;96.20;;;;;;5055582;28;20101;-82
2024/03/31 01:28:08;;;;;;;38.97;29.00;;;7.40;96.40;;;;;;5053553;28;20036;-77
2024/03/31 01:30:34;;;;;;;40.88;29.23;;;7.40;96.40;;;;;;5053537;28;20463;-79
2024/03/31 01:33:00;;;;;;;44.60;28.88;;;7.50;96.40;;;;;;5074701;28;20048;-79
2024/03/31 01:35:25;;;;;;;44.30;29.67;;;7.50;96.50;;;;;;5073856;28;20033;-81
2024/03/31 01:37:54;;;;;;;43.33;30.70;;;7.50;96.50;;;;;;5080528;28;20048;-79
2024/03/31 01:40:20;;;;;;;40.13;30.35;;;7.50;96.50;;;;;;5047034;28;20162;-81
2024/03/31 01:42:47;;;;;;;49.00;32.50;;;7.50;96.60;;;;;;5050973;28;20456;-84
2024/03/31 01:45:22;;;;;;;41.03;30.38;;;7.50;96.60;;;;;;5059329;28;20117;-84
2024/03/31 01:47:47;;;;;;;42.70;32.95;;;7.50;96.70;;;;;;5049094;28;20123;-83
2024/03/31 01:50:13;;;;;;;43.63;31.48;;;7.50;96.80;;;;;;5057405;28;20358;-82
2024/03/31 01:52:38;;;;;;;46.38;33.15;;;7.60;96.90;;;;;;5038300;28;20586;-82
2024/03/31 01:55:04;;;;;;;41.67;30.90;;;7.60;96.80;;;;;;5055711;28;20025;-81
2024/03/31 01:57:30;;;;;;;42.20;31.50;;;7.50;96.90;;;;;;5047174;28;20028;-80
2024/03/31 01:59:56;;;;;;;44.60;31.17;;;7.60;96.90;;;;;;5046974;28;20109;-84
2024/03/31 02:02:21;;;;;;;39.85;29.08;;;7.60;96.90;;;;;;5054198;28;20029;-83
2024/03/31 02:04:47;;;;;;;42.33;30.08;;;7.60;96.90;;;;;;5053563;28;20127;-83
2024/03/31 02:07:12;;;;;;;39.10;30.65;;;7.60;97.00;;;;;;5053096;28;20127;-83
2024/03/31 02:09:38;;;;;;;40.17;30.25;;;7.60;97.00;;;;;;5049052;28;20301;-81
2024/03/31 02:12:04;;;;;;;41.17;29.85;;;7.70;97.00;;;;;;5055955;28;20419;-83
2024/03/31 02:14:30;;;;;;;43.47;30.48;;;7.60;97.00;;;;;;5052718;28;20099;-81
2024/03/31 02:16:55;;;;;;;43.13;31.70;;;7.70;97.10;;;;;;5029499;28;20099;-84
2024/03/31 02:19:24;;;;;;;40.67;30.92;;;7.70;97.10;;;;;;5027733;28;20041;-83
2024/03/31 02:21:50;;;;;;;41.70;30.65;;;7.70;97.10;;;;;;5054469;28;20063;-80
2024/03/31 02:24:16;;;;;;;39.85;31.27;;;7.80;97.10;;;;;;5055871;28;20428;-82
2024/03/31 02:26:41;;;;;;;40.00;31.52;;;7.80;97.10;;;;;;5056379;28;20040;-83
2024/03/31 02:29:07;;;;;;;38.50;30.83;;;7.80;97.10;;;;;;5056619;28;20119;-82
2024/03/31 02:31:33;;;;;;;37.45;29.02;;;7.80;97.10;;;;;;5053766;28;20112;-82
2024/03/31 02:33:58;;;;;;;40.88;30.25;;;7.90;97.10;;;;;;5055731;28;20055;-79
2024/03/31 02:36:24;;;;;;;38.88;28.83;;;7.90;97.10;;;;;;5051048;28;20066;-82
2024/03/31 02:38:50;;;;;;;38.33;29.98;;;7.90;97.10;;;;;;5055076;28;20036;-83
2024/03/31 02:41:15;;;;;;;37.85;28.58;;;7.90;97.00;;;;;;5057701;28;20070;-80
2024/03/31 02:43:42;;;;;;;38.92;29.98;;;7.90;97.10;;;;;;5055207;28;20028;-82
2024/03/31 02:46:07;;;;;;;38.40;29.92;;;7.90;97.10;;;;;;5053884;28;20132;-80
2024/03/31 02:48:33;;;;;;;37.83;29.75;;;8.00;97.10;;;;;;5056509;28;20046;-82
2024/03/31 02:50:59;;;;;;;39.70;28.80;;;8.00;97.10;;;;;;5060923;28;20039;-79
2024/03/31 02:53:24;;;;;;;34.58;28.13;;;8.10;97.10;;;;;;5056464;28;20036;-79
2024/03/31 02:55:50;;;;;;;34.30;27.88;;;8.10;97.10;;;;;;5065555;28;20537;-83
2024/03/31 02:58:15;;;;;;;35.80;28.10;;;8.10;97.10;;;;;;5058387;28;20040;-81
2024/03/31 03:00:41;;;;;;;36.08;28.60;;;8.10;97.00;;;;;;5058829;28;20036;-82
2024/03/31 03:03:07;;;;;;;37.25;28.27;;;8.10;97.00;;;;;;5059449;28;20035;-83
2024/03/31 03:05:32;;;;;;;36.65;28.25;;;8.20;97.00;;;;;;5057054;28;20021;-79
2024/03/31 03:07:58;;;;;;;35.03;28.17;;;8.10;96.90;;;;;;5052353;28;20079;-83
2024/03/31 03:10:23;;;;;;;36.20;28.35;;;8.10;96.90;;;;;;5060539;28;20521;-83
2024/03/31 03:12:49;;;;;;;36.72;27.65;;;8.20;96.90;;;;;;5058672;28;20037;-79
2024/03/31 03:15:15;;;;;;;37.67;28.60;;;8.20;96.80;;;;;;5042496;28;20043;-82
2024/03/31 03:17:40;;;;;;;35.67;28.52;;;8.10;96.70;;;;;;5037132;28;20124;-79
2024/03/31 03:20:06;;;;;;;36.08;28.30;;;8.10;96.80;;;;;;5060535;28;20084;-83
2024/03/31 03:22:35;;;;;;;35.33;27.13;;;8.20;96.80;;;;;;5058820;28;20127;-83
2024/03/31 03:25:01;;;;;;;37.03;28.80;;;8.20;96.80;;;;;;5060448;28;20074;-81
2024/03/31 03:27:28;;;;;;;37.83;28.85;;;8.20;96.80;;;;;;5059728;28;20074;-84
2024/03/31 03:29:54;;;;;;;37.15;29.35;;;8.20;96.80;;;;;;5064724;28;20513;-84
2024/03/31 03:32:20;;;;;;;41.92;32.22;;;8.20;96.80;;;;;;5061511;28;20085;-79
2024/03/31 03:34:45;;;;;;;42.28;31.42;;;8.20;96.80;;;;;;5063123;28;20024;-83
2024/03/31 03:37:11;;;;;;;40.33;32.30;;;8.20;96.80;;;;;;5040999;28;20659;-83
2024/03/31 03:39:36;;;;;;;44.67;33.63;;;8.30;96.90;;;;;;5061233;28;20381;-80
2024/03/31 03:42:03;;;;;;;43.92;34.33;;;8.30;96.90;;;;;;5059560;28;20025;-83
2024/03/31 03:44:29;;;;;;;44.22;34.15;;;8.30;96.90;;;;;;5058100;28;20051;-81
2024/03/31 03:46:54;;;;;;;45.20;34.50;;;8.30;96.80;;;;;;5058522;28;20037;-82
2024/03/31 03:49:20;;;;;;;45.58;35.53;;;8.30;96.80;;;;;;5056514;28;20862;-79
2024/03/31 03:51:45;;;;;;;45.33;33.60;;;8.30;96.90;;;;;;5058090;28;20417;-82
2024/03/31 03:54:11;;;;;;;43.17;33.90;;;8.30;96.90;;;;;;5060106;28;20358;-80
2024/03/31 03:56:38;;;;;;;48.13;34.97;;;8.40;96.90;;;;;;5057019;28;20864;-83
2024/03/31 03:59:05;;;;;;;45.95;36.75;;;8.30;96.90;;;;;;5059209;28;20041;-81
2024/03/31 04:01:30;;;;;;;43.00;34.03;;;8.40;96.90;;;;;;5055247;28;20029;-84
2024/03/31 04:03:56;;;;;;;47.30;34.55;;;8.40;96.80;;;;;;5051699;28;20086;-84
2024/03/31 04:06:21;;;;;;;43.90;35.83;;;8.40;96.90;;;;;;5047969;28;20350;-82
2024/03/31 04:08:47;;;;;;;46.60;36.83;;;8.40;96.90;;;;;;5056252;28;20191;-82
2024/03/31 04:11:20;;;;;;;43.63;35.42;;;8.40;96.80;;;;;;5051884;28;20029;-80
2024/03/31 04:13:46;;;;;;;45.10;34.58;;;8.40;96.80;;;;;;5059256;28;20384;-79
2024/03/31 04:16:12;;;;;;;47.20;36.15;;;8.40;96.80;;;;;;5057353;28;20037;-82
2024/03/31 04:18:37;;;;;;;45.90;35.60;;;8.40;96.80;;;;;;5051960;28;20947;-84
2024/03/31 04:21:06;;;;;;;47.75;37.47;;;8.40;96.90;;;;;;5058367;28;20028;-78
2024/03/31 04:23:32;;;;;;;43.08;34.47;;;8.50;96.80;;;;;;5058591;28;20532;-83
2024/03/31 04:25:57;;;;;;;43.95;34.90;;;8.50;96.80;;;;;;5054653;28;20058;-81
2024/03/31 04:28:23;;;;;;;41.67;35.15;;;8.50;96.80;;;;;;5055686;28;20048;-82
2024/03/31 04:30:49;;;;;;;42.20;33.42;;;8.50;96.90;;;;;;5055709;28;20361;-82
2024/03/31 04:33:14;;;;;;;41.65;33.80;;;8.50;96.90;;;;;;5040685;28;20032;-80
2024/03/31 04:35:40;;;;;;;41.83;33.85;;;8.50;96.80;;;;;;5055608;28;20086;-80
2024/03/31 04:38:07;;;;;;;40.92;32.97;;;8.50;96.80;;;;;;5059326;28;20078;-83
2024/03/31 04:40:33;;;;;;;43.08;33.22;;;8.50;96.80;;;;;;5056372;28;20020;-83
2024/03/31 04:42:59;;;;;;;42.38;33.88;;;8.50;96.80;;;;;;5057838;28;20103;-84
2024/03/31 04:45:24;;;;;;;41.00;32.63;;;8.50;96.80;;;;;;5054630;28;20099;-84
2024/03/31 04:47:50;;;;;;;39.40;31.70;;;8.50;96.80;;;;;;5058734;28;20071;-83
2024/03/31 04:50:17;;;;;;;42.70;32.22;;;8.50;96.80;;;;;;5055147;28;20037;-83
2024/03/31 04:52:43;;;;;;;37.78;31.20;;;8.50;96.80;;;;;;5056650;28;20504;-80
2024/03/31 04:55:09;;;;;;;39.22;30.88;;;8.60;96.80;;;;;;5053293;28;20017;-79
2024/03/31 04:57:35;;;;;;;42.38;31.25;;;8.50;96.70;;;;;;5057243;28;20562;-80
2024/03/31 05:00:00;;;;;;;36.85;29.30;;;8.60;96.70;;;;;;5056341;28;20032;-78
2024/03/31 05:02:26;;;;;;;37.38;31.40;;;8.60;96.70;;;;;;5056539;28;20024;-83
2024/03/31 05:04:51;;;;;;;35.45;28.67;;;8.60;96.70;;;;;;5037771;28;20041;-81
2024/03/31 05:07:18;;;;;;;35.30;27.60;;;8.60;96.70;;;;;;5057530;28;20037;-82
2024/03/31 05:09:44;;;;;;;37.33;29.02;;;8.60;96.70;;;;;;5039558;28;21071;-83
2024/03/31 05:12:10;;;;;;;33.65;27.95;;;8.60;96.70;;;;;;5051973;28;20128;-78
2024/03/31 05:14:36;;;;;;;34.88;28.42;;;8.60;96.70;;;;;;5056633;28;20193;-83
2024/03/31 05:17:03;;;;;;;35.67;27.70;;;8.60;96.60;;;;;;5038800;28;20040;-83
2024/03/31 05:19:29;;;;;;;33.88;26.55;;;8.60;96.70;;;;;;5055620;28;20059;-80
2024/03/31 05:21:55;;;;;;;33.30;26.42;;;8.60;96.70;;;;;;5058752;28;20032;-84
2024/03/31 05:24:20;;;;;;;33.20;26.33;;;8.60;96.70;;;;;;5017443;28;1148965;-81
2024/03/31 05:26:46;;;;;;;35.30;27.50;;;8.60;96.70;;;;;;5059750;28;20048;-83
2024/03/31 05:29:12;;;;;;;33.90;26.70;;;8.70;96.70;;;;;;5056929;28;20028;-80
2024/03/31 05:31:37;;;;;;;30.67;24.77;;;8.70;96.70;;;;;;5057850;28;20040;-80
2024/03/31 05:34:06;;;;;;;33.15;25.90;;;8.70;96.70;;;;;;5054771;28;20156;-84
2024/03/31 05:36:31;;;;;;;32.88;26.38;;;8.70;96.60;;;;;;5057757;28;20037;-83
2024/03/31 05:38:57;;;;;;;33.17;26.80;;;8.70;96.60;;;;;;5055619;28;20021;-80
2024/03/31 05:41:22;;;;;;;32.55;26.42;;;8.70;96.60;;;;;;5058087;28;20029;-84
2024/03/31 05:43:48;;;;;;;33.47;27.55;;;8.70;96.60;;;;;;5057929;28;20449;-84
2024/03/31 05:46:14;;;;;;;34.30;26.63;;;8.80;96.60;;;;;;5057269;28;20029;-82
2024/03/31 05:48:40;;;;;;;32.10;25.92;;;8.80;96.60;;;;;;5053706;28;20041;-79
2024/03/31 05:51:06;;;;;;;34.72;27.92;;;8.80;96.60;;;;;;5056073;28;20409;-82
2024/03/31 05:53:31;;;;;;;32.30;26.00;;;8.80;96.60;;;;;;5059017;28;20036;-81
2024/03/31 05:55:57;;;;;;;33.70;26.65;;;8.80;96.50;;;;;;5059778;28;20031;-82
2024/03/31 05:58:23;;;;;;;32.92;26.45;;;8.90;96.50;;;;;;5046374;28;20096;-80
2024/03/31 06:00:49;;;;;;;29.83;24.65;;;9.00;96.50;;;;;;5056660;28;20197;-81
2024/03/31 06:03:15;;;;;;;34.30;26.55;;;9.00;96.40;;;;;;5059986;28;20842;-83
2024/03/31 06:05:40;;;;;;;31.40;24.52;;;9.10;96.40;;;;;;5054091;28;20085;-81
2024/03/31 06:08:06;;;;;;;31.13;25.27;;;9.10;96.20;;;;;;5056502;28;20041;-81
2024/03/31 06:10:34;;;;;;;28.63;24.58;;;9.10;96.10;;;;;;5078550;28;20108;-79
2024/03/31 06:13:00;;;;;;;31.88;25.58;;;9.10;96.10;;;;;;5083759;28;20104;-83
2024/03/31 06:15:25;;;;;;;28.55;24.52;;;9.10;96.00;;;;;;5074582;28;20013;-79
2024/03/31 06:17:51;;;;;;;31.20;24.75;;;9.10;96.00;;;;;;5072574;28;20063;-81
2024/03/31 06:20:17;;;;;;;33.20;27.08;;;9.20;96.00;;;;;;5076127;28;20025;-83
2024/03/31 06:22:42;;;;;;;28.13;24.85;;;9.20;96.00;;;;;;5069690;28;20091;-83
2024/03/31 06:25:08;;;;;;;28.48;23.52;;;9.30;96.00;;;;;;5062306;28;20040;-86
2024/03/31 06:27:34;;;;;;;31.35;24.25;;;9.30;95.80;;;;;;5060546;28;20637;-82
2024/03/31 06:30:02;;;;;;;34.20;25.13;;;9.20;95.80;;;;;;5061612;28;20447;-83
2024/03/31 06:32:27;;;;;;;33.63;25.48;;;9.20;95.80;;;;;;5060949;28;20122;-82
2024/03/31 06:34:53;;;;;;;31.70;23.92;;;9.20;95.90;;;;;;5060038;28;20029;-83
2024/03/31 06:37:19;;;;;;;33.70;26.75;;;9.30;95.80;;;;;;5060157;28;20132;-81
2024/03/31 06:39:45;;;;;;;27.80;22.00;;;9.30;95.90;;;;;;5061568;28;20401;-84
2024/03/31 06:42:11;;;;;;;29.70;23.60;;;9.30;95.80;;;;;;5060486;28;20119;-79
2024/03/31 06:44:37;;;;;;;30.05;23.15;;;9.40;95.60;;;;;;5060729;28;20032;-82
2024/03/31 06:47:03;;;;;;;32.80;25.77;;;9.40;95.70;;;;;;5060436;28;20097;-80
2024/03/31 06:49:29;;;;;;;31.42;24.80;;;9.40;95.60;;;;;;5063125;28;20072;-82
2024/03/31 06:51:57;;;;;;;28.75;22.70;;;9.50;95.60;;;;;;5059301;28;20106;-80
2024/03/31 06:54:23;;;;;;;28.77;23.10;;;9.50;95.50;;;;;;5058674;28;20337;-81
2024/03/31 06:56:48;;;;;;;33.28;25.30;;;9.60;95.50;;;;;;5058456;28;20530;-80
2024/03/31 06:59:14;;;;;;;30.23;24.08;;;9.60;95.40;;;;;;5058610;28;20067;-83
2024/03/31 07:01:40;;;;;;;28.05;22.35;;;9.60;95.40;;;;;;5058389;28;20032;-82
2024/03/31 07:04:05;;;;;;;30.40;23.05;;;9.70;95.40;;;;;;5061668;28;20637;-82
2024/03/31 07:06:31;;;;;;;27.73;22.30;;;9.80;95.30;;;;;;5060211;28;20437;-83
2024/03/31 07:08:57;;;;;;;24.42;19.20;;;9.90;95.30;;;;;;5059767;28;20544;-82
2024/03/31 07:11:23;;;;;;;25.60;18.25;;;9.90;95.00;;;;;;5060432;28;20037;-82
2024/03/31 07:13:49;;;;;;;24.98;18.45;;;10.00;95.00;;;;;;5061153;28;20017;-83
2024/03/31 07:16:14;;;;;;;25.23;20.48;;;10.10;95.00;;;;;;5055783;28;20067;-81
2024/03/31 07:18:40;;;;;;;24.63;18.85;;;10.20;94.90;;;;;;5058526;28;20040;-83
2024/03/31 07:21:05;;;;;;;24.75;17.85;;;10.20;94.50;;;;;;5060118;28;20119;-81
2024/03/31 07:23:31;;;;;;;25.27;17.20;;;10.30;94.60;;;;;;5057554;28;20028;-80
2024/03/31 07:25:59;;;;;;;22.95;16.73;;;10.30;94.50;;;;;;5055152;28;20043;-82
2024/03/31 07:28:26;;;;;;;21.90;15.02;;;10.40;94.30;;;;;;5055892;28;20115;-82
2024/03/31 07:30:51;;;;;;;25.13;18.63;;;10.40;94.10;;;;;;5040151;28;20409;-80
2024/03/31 07:33:18;;;;;;;29.55;18.17;;;10.50;94.20;;;;;;5052228;28;20040;-82
2024/03/31 07:35:44;;;;;;;26.48;17.65;;;10.50;93.90;;;;;;5056385;28;20096;-82
2024/03/31 07:38:09;;;;;;;27.00;17.88;;;10.60;93.90;;;;;;5060796;28;20249;-81
2024/03/31 07:40:35;;;;;;;22.58;15.73;;;10.60;93.80;;;;;;5057585;28;20024;-74
2024/03/31 07:43:03;;;;;;;23.92;17.15;;;10.70;93.50;;;;;;5059378;28;20100;-74
2024/03/31 07:45:29;;;;;;;21.90;14.38;;;10.90;93.60;;;;;;5056087;28;20036;-74
2024/03/31 07:47:55;;;;;;;21.38;13.95;;;11.10;93.30;;;;;;5058510;28;20021;-74
2024/03/31 07:50:21;;;;;;;32.50;24.58;;;11.30;92.90;;;;;;5056296;28;20051;-73
2024/03/31 07:52:46;;;;;;;18.38;13.70;;;11.60;92.10;;;;;;5054718;28;20029;-73
2024/03/31 07:55:12;;;;;;;21.73;13.32;;;11.90;91.40;;;;;;5052651;28;20488;-74
2024/03/31 07:57:38;;;;;;;20.67;11.13;;;12.10;90.70;;;;;;5055598;28;20028;-75
2024/03/31 08:00:04;;;;;;;19.23;11.18;;;12.00;90.00;;;;;;5053933;28;21270;-75
2024/03/31 08:02:30;;;;;;;18.80;10.80;;;11.80;89.40;;;;;;5057800;28;20031;-75
2024/03/31 08:04:56;;;;;;;15.60;9.35;;;11.80;89.70;;;;;;5056872;28;20385;-75
2024/03/31 08:07:21;;;;;;;18.40;9.90;;;11.70;89.50;;;;;;5058030;28;20045;-75
2024/03/31 08:09:47;;;;;;;16.67;9.35;;;11.80;89.90;;;;;;5059556;28;20039;-75
2024/03/31 08:12:13;;;;;;;17.00;9.38;;;12.10;90.00;;;;;;5059752;28;20142;-75
2024/03/31 08:14:38;;;;;;;17.60;10.40;;;12.40;90.00;;;;;;5056534;28;20879;-75
2024/03/31 08:17:04;;;;;;;18.67;8.70;;;12.70;89.40;;;;;;5059154;28;20029;-74
2024/03/31 08:19:30;;;;;;;18.60;6.72;;;13.10;88.00;;;;;;5058311;28;20102;-75
2024/03/31 08:21:55;;;;;;;13.48;5.95;;;13.40;85.40;;;;;;5058772;28;20090;-75
2024/03/31 08:24:21;;;;;;;14.48;5.75;;;13.50;83.60;;;;;;5053594;28;20456;-75
2024/03/31 08:26:47;;;;;;;13.20;5.65;;;13.70;83.50;;;;;;5057295;28;20031;-74
2024/03/31 08:29:14;;;;;;;12.43;5.35;;;13.80;81.90;;;;;;5057670;28;20060;-74
2024/03/31 08:31:40;;;;;;;15.02;5.25;;;13.70;81.50;;;;;;5060062;28;20043;-74
2024/03/31 08:34:05;;;;;;;13.93;4.88;;;14.00;82.50;;;;;;5054977;28;20028;-74
2024/03/31 08:36:32;;;;;;;13.75;4.47;;;14.20;81.40;;;;;;5059140;28;20037;-75
2024/03/31 08:38:57;;;;;;;15.68;5.28;;;14.30;79.70;;;;;;5062814;28;20032;-74
2024/03/31 08:41:30;;;;;;;16.70;5.30;;;14.40;79.70;;;;;;5058696;28;20039;-74
2024/03/31 08:44:01;;;;;;;14.50;5.32;;;14.60;79.50;;;;;;5057289;28;20036;-75
2024/03/31 08:46:26;;;;;;;11.93;4.65;;;14.60;79.30;;;;;;5049688;28;20028;-75
2024/03/31 08:48:52;;;;;;;9.57;4.25;;;14.80;77.70;;;;;;5054509;28;20055;-74
2024/03/31 08:51:18;;;;;;;14.10;4.63;;;15.00;78.40;;;;;;5053327;28;20055;-74
2024/03/31 08:53:46;;;;;;;15.10;4.57;;;15.10;77.20;;;;;;5059435;28;20452;-75
2024/03/31 08:56:12;;;;;;;11.30;4.32;;;15.30;77.00;;;;;;5051933;28;20032;-75
2024/03/31 08:58:39;;;;;;;14.80;4.60;;;15.10;76.20;;;;;;5041603;28;20076;-75
2024/03/31 09:01:06;;;;;;;14.25;4.22;;;15.30;76.10;;;;;;5056158;28;20017;-75
2024/03/31 09:03:32;;;;;;;12.82;4.57;;;15.50;75.70;;;;;;5057273;28;20112;-74
2024/03/31 09:05:57;;;;;;;12.15;4.85;;;15.40;75.20;;;;;;5049699;28;20652;-75
2024/03/31 09:08:23;;;;;;;12.98;3.78;;;15.20;74.70;;;;;;5050977;28;20044;-74
2024/03/31 09:10:49;;;;;;;15.27;4.53;;;15.10;75.50;;;;;;5055847;28;20036;-74
2024/03/31 09:13:15;;;;;;;13.95;4.00;;;15.30;74.80;;;;;;5042611;28;20024;-74
2024/03/31 09:15:41;;;;;;;11.80;4.55;;;15.60;74.20;;;;;;5040171;28;20024;-75
2024/03/31 09:18:07;;;;;;;14.45;4.15;;;15.80;74.20;;;;;;5047939;28;20028;-75
2024/03/31 09:20:33;;;;;;;10.65;3.33;;;16.10;74.10;;;;;;5053975;28;20098;-74
2024/03/31 09:22:59;;;;;;;10.88;4.13;;;16.40;73.00;;;;;;5054229;28;20067;-74
2024/03/31 09:25:25;;;;;;;13.35;4.07;;;16.30;72.40;;;;;;5056408;28;20365;-75
2024/03/31 09:28:00;;;;;;;13.85;3.83;;;16.40;72.40;;;;;;5056660;28;20056;-74
2024/03/31 09:30:29;;;;;;;12.20;3.17;;;16.10;72.40;;;;;;5057832;28;20190;-75
2024/03/31 09:32:55;;;;;;;11.18;3.15;;;16.10;72.70;;;;;;5055042;28;20036;-75
2024/03/31 09:35:24;;;;;;;10.65;3.75;;;16.00;73.30;;;;;;5054112;28;20114;-74
2024/03/31 09:37:51;;;;;;;10.23;3.55;;;16.10;73.20;;;;;;5056543;28;20684;-75
2024/03/31 09:40:18;;;;;;;11.05;3.38;;;15.90;73.00;;;;;;5055457;28;20036;-75
2024/03/31 09:42:46;;;;;;;11.68;3.50;;;16.00;73.70;;;;;;5058103;28;20045;-75
2024/03/31 09:45:13;;;;;;;14.75;3.50;;;16.10;73.00;;;;;;5046738;28;21232;-75
2024/03/31 09:47:49;;;;;;;10.25;3.83;;;15.80;73.70;;;;;;5057350;28;20623;-75
2024/03/31 09:50:23;;;;;;;9.32;3.03;;;15.90;73.80;;;;;;5055106;28;20051;-76
2024/03/31 09:52:58;;;;;;;12.80;3.53;;;15.90;73.00;;;;;;5039435;28;20089;-75
2024/03/31 09:55:24;;;;;;;12.90;3.45;;;16.00;73.70;;;;;;5069431;28;20028;-75
2024/03/31 09:57:54;;;;;;;12.65;3.63;;;16.10;74.30;;;;;;5036936;28;20120;-75
2024/03/31 10:00:21;;;;;;;15.23;3.63;;;16.10;73.10;;;;;;5056116;28;20060;-75
2024/03/31 10:02:59;;;;;;;12.35;3.55;;;16.20;73.00;;;;;;5058004;28;20090;-74
2024/03/31 10:05:26;;;;;;;13.10;3.03;;;16.10;72.50;;;;;;5051476;28;20124;-74
2024/03/31 10:07:53;;;;;;;10.68;3.58;;;16.00;72.70;;;;;;5057798;28;20833;-75
2024/03/31 10:10:21;;;;;;;11.40;3.00;;;16.10;73.00;;;;;;5056119;28;20032;-73
2024/03/31 10:12:50;;;;;;;13.63;3.00;;;16.30;72.80;;;;;;5053502;28;20036;-73
2024/03/31 10:15:17;;;;;;;9.23;3.15;;;16.50;71.40;;;;;;5057352;28;20142;-74
2024/03/31 10:17:45;;;;;;;11.38;3.38;;;16.70;71.80;;;;;;5055844;28;20036;-73
2024/03/31 10:20:13;;;;;;;13.82;3.40;;;17.00;72.10;;;;;;5052747;28;20033;-75
2024/03/31 10:22:41;;;;;;;12.32;3.05;;;17.50;71.40;;;;;;5056599;28;20056;-75
2024/03/31 10:25:09;;;;;;;9.38;2.67;;;17.20;70.30;;;;;;5054932;28;20044;-75
2024/03/31 10:27:37;;;;;;;11.88;3.47;;;17.20;70.80;;;;;;5055517;28;20054;-75
2024/03/31 10:30:04;;;;;;;13.25;3.97;;;17.40;69.90;;;;;;5055204;28;20052;-74
2024/03/31 10:32:29;;;;;;;10.85;2.55;;;17.70;70.10;;;;;;5054612;28;20028;-73
2024/03/31 10:34:56;;;;;;;11.80;2.40;;;18.10;70.80;;;;;;5055978;28;20043;-74
2024/03/31 10:37:22;;;;;;;10.98;2.28;;;17.70;67.40;;;;;;5056807;28;20638;-74
2024/03/31 10:39:49;;;;;;;9.75;2.30;;;17.60;68.20;;;;;;5057350;28;20032;-73
2024/03/31 10:42:15;;;;;;;10.15;2.30;;;17.60;69.40;;;;;;5054537;28;20025;-74
2024/03/31 10:44:42;;;;;;;9.07;2.10;;;17.30;69.20;;;;;;5046565;28;20032;-73
2024/03/31 10:47:08;;;;;;;8.65;2.22;;;17.10;70.40;;;;;;5051984;28;20049;-73
2024/03/31 10:49:40;;;;;;;7.45;2.35;;;17.10;69.60;;;;;;5054281;28;20361;-73
2024/03/31 10:52:12;;;;;;;9.23;2.35;;;16.80;70.30;;;;;;5050341;28;20517;-73
2024/03/31 10:54:40;;;;;;;9.32;2.17;;;17.00;70.00;;;;;;5053351;28;20025;-72
2024/03/31 10:57:12;;;;;;;9.55;2.92;;;17.10;69.80;;;;;;5052955;28;20058;-73
2024/03/31 10:59:43;;;;;;;9.07;2.15;;;16.80;70.40;;;;;;5036522;28;20052;-73
2024/03/31 11:02:21;;;;;;;8.88;1.98;;;16.50;70.00;;;;;;5056656;28;20056;-74
2024/03/31 11:05:06;;;;;;;6.60;1.80;;;16.30;70.70;;;;;;5050109;28;20045;-73
2024/03/31 11:07:35;;;;;;;8.48;2.20;;;16.10;70.50;;;;;;5053726;28;20041;-76
2024/03/31 11:10:05;;;;;;;7.80;1.98;;;16.10;71.00;;;;;;5060828;28;20033;-72
2024/03/31 11:12:31;;;;;;;8.23;2.10;;;16.10;72.50;;;;;;5056011;28;20037;-74
2024/03/31 11:14:56;;;;;;;7.05;1.90;;;16.10;72.10;;;;;;5058280;28;20044;-73
2024/03/31 11:17:29;;;;;;;6.88;1.77;;;16.20;72.40;;;;;;5047655;28;20037;-76
2024/03/31 11:19:59;;;;;;;9.80;2.13;;;16.10;72.40;;;;;;5063849;28;20132;-75
2024/03/31 11:22:26;;;;;;;8.95;2.50;;;16.20;72.10;;;;;;5034710;28;20039;-73
2024/03/31 11:24:51;;;;;;;9.30;2.00;;;16.30;72.40;;;;;;5041138;28;20385;-76
2024/03/31 11:27:19;;;;;;;7.07;1.90;;;16.20;71.40;;;;;;5060004;28;20048;-77
2024/03/31 11:29:46;;;;;;;4.63;1.50;;;16.30;71.00;;;;;;5055764;28;20072;-76
2024/03/31 11:32:15;;;;;;;8.02;1.58;;;16.40;69.40;;;;;;5056725;28;20033;-75
2024/03/31 11:34:45;;;;;;;7.22;2.03;;;16.50;70.50;;;;;;5042971;28;20476;-74
2024/03/31 11:37:10;;;;;;;8.00;1.60;;;17.00;69.80;;;;;;5041213;28;20041;-76
2024/03/31 11:39:36;;;;;;;9.77;1.80;;;16.90;69.60;;;;;;5059983;28;20099;-78
2024/03/31 11:42:02;;;;;;;5.95;1.63;;;16.80;70.10;;;;;;5052917;28;21196;-75
2024/03/31 11:44:32;;;;;;;7.32;1.77;;;17.00;70.20;;;;;;5046675;28;20043;-75
2024/03/31 11:47:00;;;;;;;5.90;1.95;;;16.70;70.30;;;;;;5058970;28;20484;-75
2024/03/31 11:49:26;;;;;;;4.95;1.20;;;16.60;71.40;;;;;;5051394;28;20037;-76
2024/03/31 11:51:52;;;;;;;3.63;1.45;;;16.60;71.90;;;;;;5057254;28;20965;-73
2024/03/31 11:54:18;;;;;;;4.65;1.52;;;16.60;71.90;;;;;;5059572;28;20028;-74
2024/03/31 11:56:44;;;;;;;3.65;1.25;;;16.40;72.70;;;;;;5058872;28;20592;-75
2024/03/31 11:59:17;;;;;;;5.22;1.30;;;16.10;73.30;;;;;;5059072;28;20036;-75
2024/03/31 12:01:42;;;;;;;2.22;1.05;;;16.00;74.10;;;;;;5049432;28;20565;-75
2024/03/31 12:04:17;;;;;;;2.60;1.10;;;15.90;73.40;;;;;;5046097;28;20053;-75
2024/03/31 12:06:45;;;;;;;2.83;1.20;;;15.80;73.60;;;;;;5043524;28;20075;-75
2024/03/31 12:09:11;;;;;;;4.30;1.23;;;15.90;74.10;;;;;;5054437;28;20043;-75
2024/03/31 12:11:37;;;;;;;1.90;1.08;;;15.70;74.60;;;;;;5058082;28;20086;-73
2024/03/31 12:14:04;;;;;;;3.42;1.00;;;15.80;74.70;;;;;;5062995;28;20568;-75
2024/03/31 12:16:31;;;;;;;2.60;1.13;;;15.60;74.70;;;;;;5058898;28;20582;-74
2024/03/31 12:18:58;;;;;;;3.78;1.35;;;15.40;75.20;;;;;;5058335;28;20143;-74
2024/03/31 12:21:25;;;;;;;4.57;1.40;;;15.50;75.70;;;;;;5055678;28;20020;-74
2024/03/31 12:23:53;;;;;;;4.70;1.30;;;15.50;74.80;;;;;;5057651;28;20028;-75
2024/03/31 12:26:21;;;;;;;3.55;1.15;;;15.30;75.30;;;;;;5056907;28;20119;-74
2024/03/31 12:28:48;;;;;;;4.80;1.05;;;15.20;75.30;;;;;;5055281;28;20108;-74
2024/03/31 12:31:18;;;;;;;3.67;1.08;;;15.20;75.50;;;;;;5057479;28;20044;-75
2024/03/31 12:33:44;;;;;;;3.13;1.25;;;15.10;75.50;;;;;;5050579;28;20033;-74